sensor_id;sensor_type;location;lat;lon;timestamp;temperature;humidity
31759;DHT22;36334;51.366;0.020;2022-09-29T00:02:38;6.60;99.90
31759;DHT22;36334;51.366;0.020;2022-09-29T00:05:24;6.50;99.90
31759;DHT22;36334;51.366;0.020;2022-09-29T00:08:12;6.50;99.90
31759;DHT22;36334;51.366;0.020;2022-09-29T00:10:58;6.50;99.90
31759;DHT22;36334;51.366;0.020;2022-09-29T00:13:45;6.50;99.90
31759;DHT22;36334;51.366;0.020;2022-09-29T00:16:34;6.40;99.90
31759;DHT22;36334;51.366;0.020;2022-09-29T00:19:20;6.40;99.90
31759;DHT22;36334;51.366;0.020;2022-09-29T00:22:06;6.40;99.90
31759;DHT22;36334;51.366;0.020;2022-09-29T00:24:52;6.30;99.90
31759;DHT22;36334;51.366;0.020;2022-09-29T00:27:38;6.30;99.90
31759;DHT22;36334;51.366;0.020;2022-09-29T00:30:24;6.30;99.90
31759;DHT22;36334;51.366;0.020;2022-09-29T00:33:10;6.30;99.90
31759;DHT22;36334;51.366;0.020;2022-09-29T00:36:04;6.20;99.90
31759;DHT22;36334;51.366;0.020;2022-09-29T00:38:51;6.20;99.90
31759;DHT22;36334;51.366;0.020;2022-09-29T00:41:41;6.20;99.90
31759;DHT22;36334;51.366;0.020;2022-09-29T00:45:00;6.20;99.90
31759;DHT22;36334;51.366;0.020;2022-09-29T00:48:12;6.10;99.90
31759;DHT22;36334;51.366;0.020;2022-09-29T00:50:56;6.10;99.90
31759;DHT22;36334;51.366;0.020;2022-09-29T00:53:47;6.10;99.90
31759;DHT22;36334;51.366;0.020;2022-09-29T00:56:35;6.10;99.90
31759;DHT22;36334;51.366;0.020;2022-09-29T01:02:24;6.10;99.90
31759;DHT22;36334;51.366;0.020;2022-09-29T01:05:22;6.10;99.90
31759;DHT22;36334;51.366;0.020;2022-09-29T01:08:15;6.20;99.90
31759;DHT22;36334;51.366;0.020;2022-09-29T01:11:04;6.20;99.90
31759;DHT22;36334;51.366;0.020;2022-09-29T01:13:52;6.20;99.90
31759;DHT22;36334;51.366;0.020;2022-09-29T01:16:45;6.20;99.90
31759;DHT22;36334;51.366;0.020;2022-09-29T01:34:53;6.10;99.90
31759;DHT22;36334;51.366;0.020;2022-09-29T01:38:09;6.00;99.90
31759;DHT22;36334;51.366;0.020;2022-09-29T01:41:20;6.00;99.90
31759;DHT22;36334;51.366;0.020;2022-09-29T01:47:14;5.90;99.90
31759;DHT22;36334;51.366;0.020;2022-09-29T01:50:10;5.90;99.90
31759;DHT22;36334;51.366;0.020;2022-09-29T01:53:03;5.90;99.90
31759;DHT22;36334;51.366;0.020;2022-09-29T01:55:53;5.90;99.90
31759;DHT22;36334;51.366;0.020;2022-09-29T01:58:48;5.80;99.90
31759;DHT22;36334;51.366;0.020;2022-09-29T02:01:41;5.80;99.90
31759;DHT22;36334;51.366;0.020;2022-09-29T02:04:35;5.80;99.90
31759;DHT22;36334;51.366;0.020;2022-09-29T02:07:33;5.80;99.90
31759;DHT22;36334;51.366;0.020;2022-09-29T02:10:26;5.80;99.90
31759;DHT22;36334;51.366;0.020;2022-09-29T02:13:15;5.70;99.90
31759;DHT22;36334;51.366;0.020;2022-09-29T02:16:04;5.70;99.90
31759;DHT22;36334;51.366;0.020;2022-09-29T02:18:59;5.60;99.90
31759;DHT22;36334;51.366;0.020;2022-09-29T02:21:47;5.60;99.90
31759;DHT22;36334;51.366;0.020;2022-09-29T02:24:34;5.50;99.90
31759;DHT22;36334;51.366;0.020;2022-09-29T02:27:22;5.50;99.90
31759;DHT22;36334;51.366;0.020;2022-09-29T02:30:09;5.40;99.90
31759;DHT22;36334;51.366;0.020;2022-09-29T02:32:56;5.40;99.90
31759;DHT22;36334;51.366;0.020;2022-09-29T02:39:01;5.30;99.90
31759;DHT22;36334;51.366;0.020;2022-09-29T02:45:34;5.30;99.90
31759;DHT22;36334;51.366;0.020;2022-09-29T02:51:33;5.20;99.90
31759;DHT22;36334;51.366;0.020;2022-09-29T02:54:43;5.20;99.90
31759;DHT22;36334;51.366;0.020;2022-09-29T03:00:29;5.10;99.90
31759;DHT22;36334;51.366;0.020;2022-09-29T03:03:16;5.10;99.90
31759;DHT22;36334;51.366;0.020;2022-09-29T03:06:02;5.10;99.90
31759;DHT22;36334;51.366;0.020;2022-09-29T03:08:48;5.10;99.90
31759;DHT22;36334;51.366;0.020;2022-09-29T03:11:42;5.10;99.90
31759;DHT22;36334;51.366;0.020;2022-09-29T03:14:29;5.10;99.90
31759;DHT22;36334;51.366;0.020;2022-09-29T03:17:15;5.10;99.90
31759;DHT22;36334;51.366;0.020;2022-09-29T03:20:01;5.10;99.90
31759;DHT22;36334;51.366;0.020;2022-09-29T03:22:47;5.10;99.90
31759;DHT22;36334;51.366;0.020;2022-09-29T03:25:33;5.10;99.90
31759;DHT22;36334;51.366;0.020;2022-09-29T03:28:19;5.10;99.90
31759;DHT22;36334;51.366;0.020;2022-09-29T03:31:09;5.10;99.90
31759;DHT22;36334;51.366;0.020;2022-09-29T03:33:55;5.10;99.90
31759;DHT22;36334;51.366;0.020;2022-09-29T03:36:41;5.10;99.90
31759;DHT22;36334;51.366;0.020;2022-09-29T03:39:28;5.10;99.90
31759;DHT22;36334;51.366;0.020;2022-09-29T03:42:14;5.10;99.90
31759;DHT22;36334;51.366;0.020;2022-09-29T03:45:01;5.10;99.90
31759;DHT22;36334;51.366;0.020;2022-09-29T03:47:48;5.10;99.90
31759;DHT22;36334;51.366;0.020;2022-09-29T03:50:34;5.10;99.90
31759;DHT22;36334;51.366;0.020;2022-09-29T03:53:24;5.10;99.90
31759;DHT22;36334;51.366;0.020;2022-09-29T03:56:11;5.10;99.90
31759;DHT22;36334;51.366;0.020;2022-09-29T03:58:58;5.00;99.90
31759;DHT22;36334;51.366;0.020;2022-09-29T04:01:44;5.00;99.90
31759;DHT22;36334;51.366;0.020;2022-09-29T04:04:30;5.00;99.90
31759;DHT22;36334;51.366;0.020;2022-09-29T04:07:16;5.00;99.90
31759;DHT22;36334;51.366;0.020;2022-09-29T04:10:03;5.00;99.90
31759;DHT22;36334;51.366;0.020;2022-09-29T04:12:49;5.00;99.90
31759;DHT22;36334;51.366;0.020;2022-09-29T04:15:36;4.90;99.90
31759;DHT22;36334;51.366;0.020;2022-09-29T04:18:22;4.90;99.90
31759;DHT22;36334;51.366;0.020;2022-09-29T04:21:10;4.90;99.90
31759;DHT22;36334;51.366;0.020;2022-09-29T04:23:56;5.00;99.90
31759;DHT22;36334;51.366;0.020;2022-09-29T04:26:42;4.90;99.90
31759;DHT22;36334;51.366;0.020;2022-09-29T04:29:29;5.00;99.90
31759;DHT22;36334;51.366;0.020;2022-09-29T04:32:15;4.90;99.90
31759;DHT22;36334;51.366;0.020;2022-09-29T04:35:01;4.90;99.90
31759;DHT22;36334;51.366;0.020;2022-09-29T04:37:48;4.90;99.90
31759;DHT22;36334;51.366;0.020;2022-09-29T04:40:35;5.00;99.90
31759;DHT22;36334;51.366;0.020;2022-09-29T04:43:21;5.00;99.90
31759;DHT22;36334;51.366;0.020;2022-09-29T04:46:12;5.00;99.90
31759;DHT22;36334;51.366;0.020;2022-09-29T04:48:58;5.10;99.90
31759;DHT22;36334;51.366;0.020;2022-09-29T04:51:45;5.10;99.90
31759;DHT22;36334;51.366;0.020;2022-09-29T04:54:34;5.10;99.90
31759;DHT22;36334;51.366;0.020;2022-09-29T04:57:23;5.20;99.90
31759;DHT22;36334;51.366;0.020;2022-09-29T05:00:10;5.30;99.90
31759;DHT22;36334;51.366;0.020;2022-09-29T05:02:57;5.40;99.90
31759;DHT22;36334;51.366;0.020;2022-09-29T05:05:43;5.40;99.90
31759;DHT22;36334;51.366;0.020;2022-09-29T05:08:29;5.50;99.90
31759;DHT22;36334;51.366;0.020;2022-09-29T05:11:15;5.60;99.90
31759;DHT22;36334;51.366;0.020;2022-09-29T05:14:01;5.60;99.90
31759;DHT22;36334;51.366;0.020;2022-09-29T05:16:47;5.70;99.90
31759;DHT22;36334;51.366;0.020;2022-09-29T05:19:33;5.70;99.90
31759;DHT22;36334;51.366;0.020;2022-09-29T05:22:19;5.70;99.90
31759;DHT22;36334;51.366;0.020;2022-09-29T05:25:09;5.80;99.90
31759;DHT22;36334;51.366;0.020;2022-09-29T05:27:56;5.80;99.90
31759;DHT22;36334;51.366;0.020;2022-09-29T05:30:42;5.90;99.90
31759;DHT22;36334;51.366;0.020;2022-09-29T05:33:31;5.90;99.90
31759;DHT22;36334;51.366;0.020;2022-09-29T05:36:17;5.90;99.90
31759;DHT22;36334;51.366;0.020;2022-09-29T05:39:04;5.90;99.90
31759;DHT22;36334;51.366;0.020;2022-09-29T05:41:50;6.00;99.90
31759;DHT22;36334;51.366;0.020;2022-09-29T05:44:36;6.10;99.90
31759;DHT22;36334;51.366;0.020;2022-09-29T05:47:21;6.10;99.90
31759;DHT22;36334;51.366;0.020;2022-09-29T05:50:10;6.10;99.90
31759;DHT22;36334;51.366;0.020;2022-09-29T05:53:02;6.10;99.90
31759;DHT22;36334;51.366;0.020;2022-09-29T05:55:48;6.20;99.90
31759;DHT22;36334;51.366;0.020;2022-09-29T05:58:35;6.20;99.90
31759;DHT22;36334;51.366;0.020;2022-09-29T06:01:24;6.20;99.90
31759;DHT22;36334;51.366;0.020;2022-09-29T06:04:10;6.20;99.90
31759;DHT22;36334;51.366;0.020;2022-09-29T06:06:56;6.20;99.90
31759;DHT22;36334;51.366;0.020;2022-09-29T06:09:42;6.30;99.90
31759;DHT22;36334;51.366;0.020;2022-09-29T06:12:33;6.30;99.90
31759;DHT22;36334;51.366;0.020;2022-09-29T06:15:19;6.30;99.90
31759;DHT22;36334;51.366;0.020;2022-09-29T06:18:11;6.40;99.90
31759;DHT22;36334;51.366;0.020;2022-09-29T06:21:11;6.40;99.90
31759;DHT22;36334;51.366;0.020;2022-09-29T06:23:58;6.50;99.90
31759;DHT22;36334;51.366;0.020;2022-09-29T06:26:44;6.50;99.90
31759;DHT22;36334;51.366;0.020;2022-09-29T06:29:30;6.60;99.90
31759;DHT22;36334;51.366;0.020;2022-09-29T06:32:19;6.70;99.90
31759;DHT22;36334;51.366;0.020;2022-09-29T06:35:05;6.80;99.90
31759;DHT22;36334;51.366;0.020;2022-09-29T06:38:10;6.80;99.90
31759;DHT22;36334;51.366;0.020;2022-09-29T06:40:56;7.00;99.90
31759;DHT22;36334;51.366;0.020;2022-09-29T06:43:42;7.00;99.90
31759;DHT22;36334;51.366;0.020;2022-09-29T06:46:28;7.00;99.90
31759;DHT22;36334;51.366;0.020;2022-09-29T06:49:14;7.10;99.90
31759;DHT22;36334;51.366;0.020;2022-09-29T06:52:01;7.20;99.90
31759;DHT22;36334;51.366;0.020;2022-09-29T06:55:04;7.30;99.90
31759;DHT22;36334;51.366;0.020;2022-09-29T06:57:50;7.50;99.90
31759;DHT22;36334;51.366;0.020;2022-09-29T07:00:37;7.60;99.90
31759;DHT22;36334;51.366;0.020;2022-09-29T07:03:23;7.60;99.90
31759;DHT22;36334;51.366;0.020;2022-09-29T07:06:13;7.70;99.90
31759;DHT22;36334;51.366;0.020;2022-09-29T07:09:06;7.80;99.90
31759;DHT22;36334;51.366;0.020;2022-09-29T07:11:52;7.90;99.90
31759;DHT22;36334;51.366;0.020;2022-09-29T07:14:38;7.90;99.90
31759;DHT22;36334;51.366;0.020;2022-09-29T07:17:24;7.90;99.90
31759;DHT22;36334;51.366;0.020;2022-09-29T07:20:10;8.00;99.90
31759;DHT22;36334;51.366;0.020;2022-09-29T07:22:56;8.00;99.90
31759;DHT22;36334;51.366;0.020;2022-09-29T07:25:44;8.10;99.90
31759;DHT22;36334;51.366;0.020;2022-09-29T07:28:37;8.20;99.90
31759;DHT22;36334;51.366;0.020;2022-09-29T07:31:23;8.40;99.90
31759;DHT22;36334;51.366;0.020;2022-09-29T07:34:09;8.50;99.90
31759;DHT22;36334;51.366;0.020;2022-09-29T07:36:55;8.70;99.90
31759;DHT22;36334;51.366;0.020;2022-09-29T07:39:41;8.90;99.90
31759;DHT22;36334;51.366;0.020;2022-09-29T07:42:27;9.10;99.90
31759;DHT22;36334;51.366;0.020;2022-09-29T07:45:16;9.20;99.90
31759;DHT22;36334;51.366;0.020;2022-09-29T07:48:03;9.50;99.90
31759;DHT22;36334;51.366;0.020;2022-09-29T07:50:51;9.70;99.90
31759;DHT22;36334;51.366;0.020;2022-09-29T07:53:37;9.80;99.90
31759;DHT22;36334;51.366;0.020;2022-09-29T07:56:23;10.00;99.90
31759;DHT22;36334;51.366;0.020;2022-09-29T07:59:10;10.10;99.90
31759;DHT22;36334;51.366;0.020;2022-09-29T08:01:56;10.30;99.90
31759;DHT22;36334;51.366;0.020;2022-09-29T08:04:43;10.30;99.90
31759;DHT22;36334;51.366;0.020;2022-09-29T08:07:29;10.40;99.90
31759;DHT22;36334;51.366;0.020;2022-09-29T08:10:16;10.40;99.90
31759;DHT22;36334;51.366;0.020;2022-09-29T08:13:02;10.40;99.90
31759;DHT22;36334;51.366;0.020;2022-09-29T08:15:55;10.40;99.90
31759;DHT22;36334;51.366;0.020;2022-09-29T08:18:42;10.40;99.90
31759;DHT22;36334;51.366;0.020;2022-09-29T08:21:29;10.40;99.90
31759;DHT22;36334;51.366;0.020;2022-09-29T08:24:16;10.40;99.90
31759;DHT22;36334;51.366;0.020;2022-09-29T08:27:07;10.30;99.90
31759;DHT22;36334;51.366;0.020;2022-09-29T08:30:04;10.40;99.90
31759;DHT22;36334;51.366;0.020;2022-09-29T08:32:52;10.30;99.90
31759;DHT22;36334;51.366;0.020;2022-09-29T08:35:39;10.30;99.90
31759;DHT22;36334;51.366;0.020;2022-09-29T08:38:26;10.30;99.90
31759;DHT22;36334;51.366;0.020;2022-09-29T08:41:33;10.30;99.90
31759;DHT22;36334;51.366;0.020;2022-09-29T08:44:51;10.30;99.90
31759;DHT22;36334;51.366;0.020;2022-09-29T08:48:05;10.40;99.90
31759;DHT22;36334;51.366;0.020;2022-09-29T08:54:47;10.40;99.90
31759;DHT22;36334;51.366;0.020;2022-09-29T08:57:36;10.40;99.90
31759;DHT22;36334;51.366;0.020;2022-09-29T09:00:33;10.40;99.90
31759;DHT22;36334;51.366;0.020;2022-09-29T09:07:11;10.50;99.90
31759;DHT22;36334;51.366;0.020;2022-09-29T09:12:56;10.60;99.90
31759;DHT22;36334;51.366;0.020;2022-09-29T09:15:59;10.70;99.90
31759;DHT22;36334;51.366;0.020;2022-09-29T09:19:08;10.70;99.90
31759;DHT22;36334;51.366;0.020;2022-09-29T09:25:12;10.90;99.90
31759;DHT22;36334;51.366;0.020;2022-09-29T09:28:18;10.90;99.90
31759;DHT22;36334;51.366;0.020;2022-09-29T09:34:13;11.10;99.90
31759;DHT22;36334;51.366;0.020;2022-09-29T09:37:07;11.20;99.90
31759;DHT22;36334;51.366;0.020;2022-09-29T09:40:04;11.20;99.90
31759;DHT22;36334;51.366;0.020;2022-09-29T09:43:04;11.30;99.90
31759;DHT22;36334;51.366;0.020;2022-09-29T09:48:57;11.40;99.90
31759;DHT22;36334;51.366;0.020;2022-09-29T09:52:03;11.50;99.90
31759;DHT22;36334;51.366;0.020;2022-09-29T09:54:53;11.50;99.90
31759;DHT22;36334;51.366;0.020;2022-09-29T09:57:46;11.60;99.90
31759;DHT22;36334;51.366;0.020;2022-09-29T10:00:42;11.70;99.90
31759;DHT22;36334;51.366;0.020;2022-09-29T10:03:29;11.70;99.90
31759;DHT22;36334;51.366;0.020;2022-09-29T10:06:17;11.80;99.90
31759;DHT22;36334;51.366;0.020;2022-09-29T10:09:03;11.90;99.90
31759;DHT22;36334;51.366;0.020;2022-09-29T10:11:50;11.90;99.90
31759;DHT22;36334;51.366;0.020;2022-09-29T10:14:51;12.00;99.90
31759;DHT22;36334;51.366;0.020;2022-09-29T10:17:42;12.10;99.90
31759;DHT22;36334;51.366;0.020;2022-09-29T10:20:35;12.20;99.90
31759;DHT22;36334;51.366;0.020;2022-09-29T10:23:31;12.30;99.90
31759;DHT22;36334;51.366;0.020;2022-09-29T10:26:22;12.50;99.90
31759;DHT22;36334;51.366;0.020;2022-09-29T10:29:41;12.70;99.90
31759;DHT22;36334;51.366;0.020;2022-09-29T10:32:30;12.80;99.90
31759;DHT22;36334;51.366;0.020;2022-09-29T10:35:26;13.00;99.90
31759;DHT22;36334;51.366;0.020;2022-09-29T10:38:24;13.10;99.90
31759;DHT22;36334;51.366;0.020;2022-09-29T10:41:10;13.30;99.90
31759;DHT22;36334;51.366;0.020;2022-09-29T10:44:18;13.40;99.90
31759;DHT22;36334;51.366;0.020;2022-09-29T10:47:06;13.50;99.90
31759;DHT22;36334;51.366;0.020;2022-09-29T10:53:16;13.80;99.90
31759;DHT22;36334;51.366;0.020;2022-09-29T10:56:16;13.90;99.90
31759;DHT22;36334;51.366;0.020;2022-09-29T10:59:03;14.10;99.90
31759;DHT22;36334;51.366;0.020;2022-09-29T11:01:57;14.30;99.90
31759;DHT22;36334;51.366;0.020;2022-09-29T11:04:45;14.40;99.90
31759;DHT22;36334;51.366;0.020;2022-09-29T11:07:43;14.50;99.90
31759;DHT22;36334;51.366;0.020;2022-09-29T11:19:06;14.60;99.90
31759;DHT22;36334;51.366;0.020;2022-09-29T11:25:41;14.50;99.90
31759;DHT22;36334;51.366;0.020;2022-09-29T11:38:02;14.50;99.90
31759;DHT22;36334;51.366;0.020;2022-09-29T11:41:01;14.50;99.90
31759;DHT22;36334;51.366;0.020;2022-09-29T11:47:08;14.60;99.90
31759;DHT22;36334;51.366;0.020;2022-09-29T12:02:27;15.40;99.90
31759;DHT22;36334;51.366;0.020;2022-09-29T12:08:24;15.80;99.90
31759;DHT22;36334;51.366;0.020;2022-09-29T12:18:21;15.90;99.90
31759;DHT22;36334;51.366;0.020;2022-09-29T12:21:09;15.80;99.90
31759;DHT22;36334;51.366;0.020;2022-09-29T12:24:03;15.70;99.90
31759;DHT22;36334;51.366;0.020;2022-09-29T12:26:52;15.50;99.90
31759;DHT22;36334;51.366;0.020;2022-09-29T12:29:43;15.40;99.90
31759;DHT22;36334;51.366;0.020;2022-09-29T12:32:36;15.20;99.90
31759;DHT22;36334;51.366;0.020;2022-09-29T12:36:37;15.20;99.90
31759;DHT22;36334;51.366;0.020;2022-09-29T12:38:50;15.20;99.90
31759;DHT22;36334;51.366;0.020;2022-09-29T12:41:39;15.40;99.90
31759;DHT22;36334;51.366;0.020;2022-09-29T12:44:41;15.50;99.90
31759;DHT22;36334;51.366;0.020;2022-09-29T12:47:56;15.60;99.90
31759;DHT22;36334;51.366;0.020;2022-09-29T12:50:53;15.70;99.90
31759;DHT22;36334;51.366;0.020;2022-09-29T13:00:00;16.10;99.90
31759;DHT22;36334;51.366;0.020;2022-09-29T13:21:43;17.30;99.90
31759;DHT22;36334;51.366;0.020;2022-09-29T13:24:52;17.50;99.90
31759;DHT22;36334;51.366;0.020;2022-09-29T13:27:44;17.60;99.90
31759;DHT22;36334;51.366;0.020;2022-09-29T13:30:33;17.60;99.90
31759;DHT22;36334;51.366;0.020;2022-09-29T13:33:23;17.40;99.90
31759;DHT22;36334;51.366;0.020;2022-09-29T13:36:34;17.20;99.90
31759;DHT22;36334;51.366;0.020;2022-09-29T13:39:24;16.90;99.90
31759;DHT22;36334;51.366;0.020;2022-09-29T13:42:43;16.70;99.90
31759;DHT22;36334;51.366;0.020;2022-09-29T13:45:35;16.40;99.90
31759;DHT22;36334;51.366;0.020;2022-09-29T13:51:26;16.40;99.90
31759;DHT22;36334;51.366;0.020;2022-09-29T13:54:34;16.50;99.90
31759;DHT22;36334;51.366;0.020;2022-09-29T13:57:22;16.70;99.90
31759;DHT22;36334;51.366;0.020;2022-09-29T14:00:18;16.90;99.90
31759;DHT22;36334;51.366;0.020;2022-09-29T14:03:16;17.20;99.90
31759;DHT22;36334;51.366;0.020;2022-09-29T14:09:23;18.00;99.90
31759;DHT22;36334;51.366;0.020;2022-09-29T14:12:18;18.30;99.90
31759;DHT22;36334;51.366;0.020;2022-09-29T14:15:07;18.60;99.90
31759;DHT22;36334;51.366;0.020;2022-09-29T14:18:01;18.80;99.60
31759;DHT22;36334;51.366;0.020;2022-09-29T14:21:03;18.70;98.70
31759;DHT22;36334;51.366;0.020;2022-09-29T14:23:51;18.50;98.40
31759;DHT22;36334;51.366;0.020;2022-09-29T14:26:51;18.20;98.50
31759;DHT22;36334;51.366;0.020;2022-09-29T14:29:43;17.80;98.50
31759;DHT22;36334;51.366;0.020;2022-09-29T14:32:54;17.50;98.60
31759;DHT22;36334;51.366;0.020;2022-09-29T14:35:46;17.20;98.70
31759;DHT22;36334;51.366;0.020;2022-09-29T14:38:46;17.00;99.00
31759;DHT22;36334;51.366;0.020;2022-09-29T14:41:53;16.90;99.20
31759;DHT22;36334;51.366;0.020;2022-09-29T14:44:39;16.70;99.40
31759;DHT22;36334;51.366;0.020;2022-09-29T14:48:04;16.80;99.10
31759;DHT22;36334;51.366;0.020;2022-09-29T14:51:24;17.10;98.90
31759;DHT22;36334;51.366;0.020;2022-09-29T15:03:47;18.90;96.90
31759;DHT22;36334;51.366;0.020;2022-09-29T15:06:44;19.10;97.00
31759;DHT22;36334;51.366;0.020;2022-09-29T15:09:35;19.40;96.60
31759;DHT22;36334;51.366;0.020;2022-09-29T15:12:25;19.50;96.30
31759;DHT22;36334;51.366;0.020;2022-09-29T15:15:31;19.70;96.00
31759;DHT22;36334;51.366;0.020;2022-09-29T15:22:34;20.10;95.00
31759;DHT22;36334;51.366;0.020;2022-09-29T15:25:31;20.20;94.60
31759;DHT22;36334;51.366;0.020;2022-09-29T15:28:33;20.40;95.00
31759;DHT22;36334;51.366;0.020;2022-09-29T15:31:27;20.50;94.80
31759;DHT22;36334;51.366;0.020;2022-09-29T15:34:19;20.60;94.80
31759;DHT22;36334;51.366;0.020;2022-09-29T15:37:07;20.80;94.80
31759;DHT22;36334;51.366;0.020;2022-09-29T15:39:56;20.90;94.70
31759;DHT22;36334;51.366;0.020;2022-09-29T15:42:47;21.10;94.30
31759;DHT22;36334;51.366;0.020;2022-09-29T15:45:32;21.20;94.50
31759;DHT22;36334;51.366;0.020;2022-09-29T15:48:20;21.10;94.50
31759;DHT22;36334;51.366;0.020;2022-09-29T15:51:16;20.80;94.20
31759;DHT22;36334;51.366;0.020;2022-09-29T15:54:03;20.40;93.90
31759;DHT22;36334;51.366;0.020;2022-09-29T15:56:50;19.90;94.20
31759;DHT22;36334;51.366;0.020;2022-09-29T15:59:55;19.40;94.30
31759;DHT22;36334;51.366;0.020;2022-09-29T16:02:42;18.90;94.60
31759;DHT22;36334;51.366;0.020;2022-09-29T16:05:31;18.50;94.80
31759;DHT22;36334;51.366;0.020;2022-09-29T16:08:22;18.20;95.00
31759;DHT22;36334;51.366;0.020;2022-09-29T16:11:21;17.80;94.80
31759;DHT22;36334;51.366;0.020;2022-09-29T16:14:24;17.50;95.10
31759;DHT22;36334;51.366;0.020;2022-09-29T16:17:12;17.20;95.40
31759;DHT22;36334;51.366;0.020;2022-09-29T16:19:59;16.90;95.50
31759;DHT22;36334;51.366;0.020;2022-09-29T16:22:47;16.70;95.50
31759;DHT22;36334;51.366;0.020;2022-09-29T16:25:33;16.50;95.80
31759;DHT22;36334;51.366;0.020;2022-09-29T16:28:26;16.40;96.10
31759;DHT22;36334;51.366;0.020;2022-09-29T16:31:20;16.30;96.30
31759;DHT22;36334;51.366;0.020;2022-09-29T16:37:17;15.90;96.70
31759;DHT22;36334;51.366;0.020;2022-09-29T16:40:03;15.80;96.80
31759;DHT22;36334;51.366;0.020;2022-09-29T16:42:51;15.70;96.90
31759;DHT22;36334;51.366;0.020;2022-09-29T16:45:38;15.60;96.90
31759;DHT22;36334;51.366;0.020;2022-09-29T16:48:28;15.50;97.00
31759;DHT22;36334;51.366;0.020;2022-09-29T16:51:17;15.40;97.00
31759;DHT22;36334;51.366;0.020;2022-09-29T16:54:27;15.30;97.20
31759;DHT22;36334;51.366;0.020;2022-09-29T16:57:27;15.20;97.40
31759;DHT22;36334;51.366;0.020;2022-09-29T17:00:15;15.10;97.50
31759;DHT22;36334;51.366;0.020;2022-09-29T17:03:03;15.00;97.80
31759;DHT22;36334;51.366;0.020;2022-09-29T17:05:51;15.00;98.10
31759;DHT22;36334;51.366;0.020;2022-09-29T17:08:37;14.90;98.40
31759;DHT22;36334;51.366;0.020;2022-09-29T17:11:24;14.80;98.50
31759;DHT22;36334;51.366;0.020;2022-09-29T17:14:10;14.70;98.50
31759;DHT22;36334;51.366;0.020;2022-09-29T17:16:58;14.60;98.70
31759;DHT22;36334;51.366;0.020;2022-09-29T17:19:52;14.50;99.00
31759;DHT22;36334;51.366;0.020;2022-09-29T17:22:46;14.40;99.30
31759;DHT22;36334;51.366;0.020;2022-09-29T17:25:35;14.30;99.60
31759;DHT22;36334;51.366;0.020;2022-09-29T17:28:23;14.10;99.90
31759;DHT22;36334;51.366;0.020;2022-09-29T17:31:10;14.00;99.90
31759;DHT22;36334;51.366;0.020;2022-09-29T17:33:58;13.90;99.90
31759;DHT22;36334;51.366;0.020;2022-09-29T17:36:44;13.80;99.90
31759;DHT22;36334;51.366;0.020;2022-09-29T17:39:30;13.70;99.90
31759;DHT22;36334;51.366;0.020;2022-09-29T17:42:17;13.50;99.90
31759;DHT22;36334;51.366;0.020;2022-09-29T17:45:04;13.40;99.90
31759;DHT22;36334;51.366;0.020;2022-09-29T17:47:51;13.30;99.90
31759;DHT22;36334;51.366;0.020;2022-09-29T17:50:46;13.20;99.90
31759;DHT22;36334;51.366;0.020;2022-09-29T17:53:32;13.10;99.90
31759;DHT22;36334;51.366;0.020;2022-09-29T17:56:23;13.00;99.90
31759;DHT22;36334;51.366;0.020;2022-09-29T17:59:13;13.00;99.90
31759;DHT22;36334;51.366;0.020;2022-09-29T18:01:59;12.90;99.90
31759;DHT22;36334;51.366;0.020;2022-09-29T18:04:45;12.80;99.90
31759;DHT22;36334;51.366;0.020;2022-09-29T18:07:34;12.80;99.90
31759;DHT22;36334;51.366;0.020;2022-09-29T18:10:33;12.70;99.90
31759;DHT22;36334;51.366;0.020;2022-09-29T18:13:22;12.60;99.90
31759;DHT22;36334;51.366;0.020;2022-09-29T18:16:15;12.60;99.90
31759;DHT22;36334;51.366;0.020;2022-09-29T18:19:02;12.50;99.90
31759;DHT22;36334;51.366;0.020;2022-09-29T18:21:51;12.40;99.90
31759;DHT22;36334;51.366;0.020;2022-09-29T18:24:37;12.30;99.90
31759;DHT22;36334;51.366;0.020;2022-09-29T18:27:23;12.20;99.90
31759;DHT22;36334;51.366;0.020;2022-09-29T18:33:03;12.00;99.90
31759;DHT22;36334;51.366;0.020;2022-09-29T18:35:53;12.00;99.90
31759;DHT22;36334;51.366;0.020;2022-09-29T18:38:39;11.90;99.90
31759;DHT22;36334;51.366;0.020;2022-09-29T18:41:29;11.80;99.90
31759;DHT22;36334;51.366;0.020;2022-09-29T18:44:24;11.70;99.90
31759;DHT22;36334;51.366;0.020;2022-09-29T18:47:15;11.70;99.90
31759;DHT22;36334;51.366;0.020;2022-09-29T18:50:01;11.50;99.90
31759;DHT22;36334;51.366;0.020;2022-09-29T18:52:49;11.40;99.90
31759;DHT22;36334;51.366;0.020;2022-09-29T18:55:36;11.40;99.90
31759;DHT22;36334;51.366;0.020;2022-09-29T18:58:23;11.20;99.90
31759;DHT22;36334;51.366;0.020;2022-09-29T19:01:13;11.10;99.90
31759;DHT22;36334;51.366;0.020;2022-09-29T19:04:02;11.00;99.90
31759;DHT22;36334;51.366;0.020;2022-09-29T19:06:50;10.90;99.90
31759;DHT22;36334;51.366;0.020;2022-09-29T19:09:38;10.80;99.90
31759;DHT22;36334;51.366;0.020;2022-09-29T19:12:24;10.80;99.90
31759;DHT22;36334;51.366;0.020;2022-09-29T19:15:16;10.70;99.90
31759;DHT22;36334;51.366;0.020;2022-09-29T19:18:07;10.60;99.90
31759;DHT22;36334;51.366;0.020;2022-09-29T19:20:55;10.60;99.90
31759;DHT22;36334;51.366;0.020;2022-09-29T19:23:43;10.40;99.90
31759;DHT22;36334;51.366;0.020;2022-09-29T19:26:31;10.40;99.90
31759;DHT22;36334;51.366;0.020;2022-09-29T19:29:18;10.30;99.90
31759;DHT22;36334;51.366;0.020;2022-09-29T19:32:05;10.20;99.90
31759;DHT22;36334;51.366;0.020;2022-09-29T19:34:51;10.20;99.90
31759;DHT22;36334;51.366;0.020;2022-09-29T19:37:41;10.10;99.90
31759;DHT22;36334;51.366;0.020;2022-09-29T19:40:30;10.10;99.90
31759;DHT22;36334;51.366;0.020;2022-09-29T19:43:21;10.00;99.90
31759;DHT22;36334;51.366;0.020;2022-09-29T19:46:09;10.10;99.90
31759;DHT22;36334;51.366;0.020;2022-09-29T19:48:58;10.00;99.90
31759;DHT22;36334;51.366;0.020;2022-09-29T19:51:44;10.00;99.90
31759;DHT22;36334;51.366;0.020;2022-09-29T19:54:42;10.00;99.90
31759;DHT22;36334;51.366;0.020;2022-09-29T19:57:28;9.90;99.90
31759;DHT22;36334;51.366;0.020;2022-09-29T20:00:19;9.90;99.90
31759;DHT22;36334;51.366;0.020;2022-09-29T20:03:09;9.80;99.90
31759;DHT22;36334;51.366;0.020;2022-09-29T20:06:03;9.70;99.90
31759;DHT22;36334;51.366;0.020;2022-09-29T20:08:51;9.60;99.90
31759;DHT22;36334;51.366;0.020;2022-09-29T20:11:37;9.60;99.90
31759;DHT22;36334;51.366;0.020;2022-09-29T20:14:26;9.50;99.90
31759;DHT22;36334;51.366;0.020;2022-09-29T20:17:12;9.50;99.90
31759;DHT22;36334;51.366;0.020;2022-09-29T20:19:58;9.40;99.90
31759;DHT22;36334;51.366;0.020;2022-09-29T20:22:48;9.30;99.90
31759;DHT22;36334;51.366;0.020;2022-09-29T20:25:34;9.30;99.90
31759;DHT22;36334;51.366;0.020;2022-09-29T20:28:20;9.20;99.90
31759;DHT22;36334;51.366;0.020;2022-09-29T20:31:09;9.20;99.90
31759;DHT22;36334;51.366;0.020;2022-09-29T20:33:59;9.20;99.90
31759;DHT22;36334;51.366;0.020;2022-09-29T20:36:45;9.10;99.90
31759;DHT22;36334;51.366;0.020;2022-09-29T20:39:42;9.00;99.90
31759;DHT22;36334;51.366;0.020;2022-09-29T20:42:28;9.00;99.90
31759;DHT22;36334;51.366;0.020;2022-09-29T20:45:17;9.00;99.90